Time;durP1;ratioP1;P1;durP2;ratioP2;P2;SDS_P1;SDS_P2;PMS_P1;PMS_P2;Temp;Humidity;BMP_temperature;BMP_pressure;BME280_temperature;BME280_humidity;BME280_pressure;Samples;Min_cycle;Max_cycle;Signal;HPM_P1;HPM_P2
2023/09/28 00:00:58;;;;;;;17.73;13.55;;;15.20;99.90;;;;;;5021303;28;20329;-57
2023/09/28 00:03:24;;;;;;;18.60;13.25;;;15.20;99.90;;;;;;5024216;28;20021;-59
2023/09/28 00:05:50;;;;;;;17.98;14.32;;;15.20;99.90;;;;;;5026781;28;20098;-57
2023/09/28 00:08:16;;;;;;;22.23;14.75;;;15.20;99.90;;;;;;5023772;28;20033;-58
2023/09/28 00:10:42;;;;;;;17.67;12.57;;;15.20;99.90;;;;;;5025700;28;20033;-58
2023/09/28 00:13:08;;;;;;;19.83;13.95;;;15.20;99.90;;;;;;5028432;28;20029;-57
2023/09/28 00:15:34;;;;;;;18.58;12.85;;;15.20;99.90;;;;;;5010523;28;20029;-57
2023/09/28 00:18:00;;;;;;;18.17;12.77;;;15.20;99.90;;;;;;5020416;28;20033;-57
2023/09/28 00:20:27;;;;;;;15.02;11.82;;;15.10;99.90;;;;;;5024712;28;20052;-56
2023/09/28 00:22:54;;;;;;;16.88;14.07;;;15.10;99.90;;;;;;5028618;28;20017;-56
2023/09/28 00:25:22;;;;;;;16.23;13.40;;;15.10;99.90;;;;;;5029479;28;20710;-55
2023/09/28 00:27:52;;;;;;;16.90;14.15;;;15.00;99.90;;;;;;5025604;28;20026;-56
2023/09/28 00:30:19;;;;;;;23.90;14.70;;;15.00;99.90;;;;;;5026760;28;20033;-58
2023/09/28 00:32:56;;;;;;;20.30;13.63;;;15.00;99.90;;;;;;5026424;28;20051;-56
2023/09/28 00:35:22;;;;;;;18.88;13.73;;;15.00;99.90;;;;;;5023573;28;20057;-58
2023/09/28 00:37:49;;;;;;;20.17;13.90;;;15.00;99.90;;;;;;5021140;28;20112;-57
2023/09/28 00:40:27;;;;;;;14.38;12.32;;;15.00;99.90;;;;;;5022661;28;20037;-57
2023/09/28 00:42:53;;;;;;;16.25;11.60;;;14.90;99.90;;;;;;5023406;28;20051;-57
2023/09/28 00:45:21;;;;;;;19.02;13.13;;;14.90;99.90;;;;;;5025317;28;20032;-55
2023/09/28 00:47:50;;;;;;;12.45;11.15;;;14.80;99.90;;;;;;5021011;28;20044;-56
2023/09/28 00:50:20;;;;;;;14.43;12.23;;;14.70;99.90;;;;;;5008016;28;20711;-57
2023/09/28 00:52:51;;;;;;;14.32;10.90;;;14.70;99.90;;;;;;5031865;28;20036;-58
2023/09/28 00:55:19;;;;;;;14.73;12.23;;;14.60;99.90;;;;;;5031869;28;20026;-58
2023/09/28 00:57:46;;;;;;;13.90;11.35;;;14.60;99.90;;;;;;5027145;28;20029;-57
2023/09/28 01:00:26;;;;;;;16.38;12.55;;;14.50;99.90;;;;;;5026276;28;20300;-58
2023/09/28 01:02:53;;;;;;;14.20;12.10;;;14.40;99.90;;;;;;5022794;28;20096;-57
2023/09/28 01:05:23;;;;;;;13.13;11.20;;;14.30;99.90;;;;;;5029874;28;20090;-53
2023/09/28 01:07:48;;;;;;;11.85;10.35;;;14.20;99.90;;;;;;5027399;28;20064;-56
2023/09/28 01:10:20;;;;;;;17.33;11.85;;;14.10;99.90;;;;;;5033859;28;20630;-57
2023/09/28 01:12:47;;;;;;;12.23;10.50;;;14.00;99.90;;;;;;5008511;28;20029;-57
2023/09/28 01:15:12;;;;;;;14.40;10.18;;;14.00;99.90;;;;;;5028324;28;20715;-58
2023/09/28 01:17:39;;;;;;;14.10;10.85;;;14.00;99.90;;;;;;5009368;28;20028;-58
2023/09/28 01:20:18;;;;;;;14.73;12.60;;;14.00;99.90;;;;;;5029303;28;20040;-57
2023/09/28 01:22:45;;;;;;;17.02;13.30;;;13.90;99.90;;;;;;5028411;28;20574;-58
2023/09/28 01:25:11;;;;;;;14.88;11.52;;;13.90;99.90;;;;;;5017992;28;20055;-59
2023/09/28 01:27:37;;;;;;;17.58;13.07;;;14.00;99.90;;;;;;5013141;28;20496;-57
2023/09/28 01:30:04;;;;;;;14.65;11.23;;;13.90;99.90;;;;;;5029676;28;20660;-57
2023/09/28 01:32:29;;;;;;;16.85;12.52;;;13.90;99.90;;;;;;5025945;28;20048;-57
2023/09/28 01:34:55;;;;;;;20.45;13.50;;;14.00;99.90;;;;;;5027086;28;20038;-58
2023/09/28 01:37:29;;;;;;;18.50;12.63;;;14.00;99.90;;;;;;5027970;28;20044;-56
2023/09/28 01:39:55;;;;;;;15.57;12.73;;;14.00;99.90;;;;;;5022734;28;20038;-59
2023/09/28 01:42:20;;;;;;;17.80;12.68;;;14.00;99.90;;;;;;5029190;28;20037;-57
2023/09/28 01:44:46;;;;;;;16.60;12.25;;;14.00;99.90;;;;;;5005535;28;20032;-57
2023/09/28 01:47:11;;;;;;;16.73;12.65;;;14.00;99.90;;;;;;5029265;28;20469;-56
2023/09/28 01:49:37;;;;;;;18.50;12.85;;;13.90;99.90;;;;;;5033254;28;20048;-57
2023/09/28 01:52:03;;;;;;;15.35;12.45;;;13.90;99.90;;;;;;5033705;28;20087;-55
2023/09/28 01:54:28;;;;;;;17.02;12.93;;;13.90;99.90;;;;;;5036263;28;20408;-57
2023/09/28 01:56:53;;;;;;;15.80;11.90;;;13.80;99.90;;;;;;5031734;28;20047;-56
2023/09/28 01:59:19;;;;;;;13.82;11.57;;;13.80;99.90;;;;;;5034115;28;20035;-59
2023/09/28 02:01:44;;;;;;;18.88;13.25;;;13.90;99.90;;;;;;5031135;28;20029;-57
2023/09/28 02:04:10;;;;;;;13.30;10.73;;;13.80;99.90;;;;;;5023221;28;20495;-56
2023/09/28 02:06:35;;;;;;;16.75;12.60;;;13.80;99.90;;;;;;5032043;28;20021;-57
2023/09/28 02:09:02;;;;;;;16.08;11.45;;;13.70;99.90;;;;;;5037573;28;20231;-57
2023/09/28 02:11:28;;;;;;;19.88;13.93;;;13.60;99.90;;;;;;5032143;28;20013;-57
2023/09/28 02:13:53;;;;;;;14.68;12.05;;;13.60;99.90;;;;;;5032715;28;20119;-56
2023/09/28 02:16:19;;;;;;;15.50;10.40;;;13.60;99.90;;;;;;5030448;28;20025;-56
2023/09/28 02:18:45;;;;;;;13.05;10.85;;;13.40;99.90;;;;;;5031656;28;20440;-55
2023/09/28 02:21:14;;;;;;;14.52;10.52;;;13.40;99.90;;;;;;5026420;28;20509;-60
2023/09/28 02:23:41;;;;;;;12.85;10.23;;;13.30;99.90;;;;;;5028800;28;20039;-59
2023/09/28 02:26:07;;;;;;;14.75;11.20;;;13.20;99.90;;;;;;5025693;28;20037;-59
2023/09/28 02:35:17;;;;;;;16.17;11.85;;;13.00;99.90;;;;;;5024386;28;20515;-60
2023/09/28 02:37:44;;;;;;;18.08;11.27;;;12.90;99.90;;;;;;5024578;28;20029;-60
2023/09/28 02:40:11;;;;;;;13.85;11.13;;;12.80;99.90;;;;;;5027147;28;20104;-59
2023/09/28 02:42:37;;;;;;;16.02;12.38;;;12.80;99.90;;;;;;5029783;28;20124;-59
2023/09/28 02:45:11;;;;;;;12.98;11.02;;;12.80;99.90;;;;;;5026988;28;20528;-60
2023/09/28 02:47:37;;;;;;;13.13;10.55;;;12.70;99.90;;;;;;5016221;28;20029;-60
2023/09/28 02:50:04;;;;;;;15.10;11.52;;;12.60;99.90;;;;;;5028010;28;20036;-60
2023/09/28 02:52:29;;;;;;;18.33;11.73;;;12.60;99.90;;;;;;5026603;28;20099;-59
2023/09/28 02:54:55;;;;;;;18.55;12.05;;;12.60;99.90;;;;;;5020820;28;20651;-60
2023/09/28 02:57:20;;;;;;;15.43;11.10;;;12.50;99.90;;;;;;5028034;28;20514;-59
2023/09/28 02:59:46;;;;;;;17.63;12.85;;;12.50;99.90;;;;;;5024247;28;20382;-60
2023/09/28 03:02:13;;;;;;;17.15;12.30;;;12.50;99.90;;;;;;5029729;28;20036;-59
2023/09/28 03:04:39;;;;;;;20.48;14.65;;;12.50;99.90;;;;;;5027565;28;20025;-60
2023/09/28 03:07:05;;;;;;;13.55;11.82;;;12.40;99.90;;;;;;5026107;28;20029;-60
2023/09/28 03:09:32;;;;;;;22.10;12.32;;;12.40;99.90;;;;;;5024970;28;20057;-60
2023/09/28 03:11:58;;;;;;;18.58;13.00;;;12.40;99.90;;;;;;5026810;28;20032;-59
2023/09/28 03:14:25;;;;;;;18.40;12.70;;;12.40;99.90;;;;;;5020688;28;20029;-60
2023/09/28 03:16:51;;;;;;;17.90;11.82;;;12.40;99.90;;;;;;5025990;28;20109;-60
2023/09/28 03:19:16;;;;;;;15.80;12.57;;;12.30;99.90;;;;;;5011747;28;20108;-60
2023/09/28 03:21:42;;;;;;;24.00;13.55;;;12.30;99.90;;;;;;5027505;28;20128;-60
2023/09/28 03:24:08;;;;;;;21.60;14.02;;;12.30;99.90;;;;;;5025322;28;20029;-60
2023/09/28 03:26:34;;;;;;;16.25;13.40;;;12.40;99.90;;;;;;5024727;28;20048;-60
2023/09/28 03:28:59;;;;;;;13.65;11.52;;;12.40;99.90;;;;;;5026914;28;20041;-60
2023/09/28 03:31:27;;;;;;;21.38;13.07;;;12.50;99.90;;;;;;5024051;28;20033;-60
2023/09/28 03:33:53;;;;;;;17.67;13.60;;;12.60;99.90;;;;;;5026504;28;20037;-59
2023/09/28 03:36:19;;;;;;;13.20;10.68;;;12.60;99.90;;;;;;5018973;28;20043;-59
2023/09/28 03:38:44;;;;;;;18.30;13.50;;;12.70;99.90;;;;;;5026135;28;20029;-60
2023/09/28 03:41:10;;;;;;;17.15;12.60;;;12.70;99.90;;;;;;5023824;28;20037;-60
2023/09/28 03:43:35;;;;;;;17.35;11.98;;;12.80;99.90;;;;;;5027187;28;20025;-61
2023/09/28 03:46:01;;;;;;;13.68;11.15;;;12.80;99.90;;;;;;5024522;28;20116;-60
2023/09/28 03:48:27;;;;;;;16.85;12.23;;;12.80;99.90;;;;;;5018990;28;20022;-59
2023/09/28 03:50:52;;;;;;;15.80;11.95;;;12.80;99.90;;;;;;5026963;28;20025;-59
2023/09/28 03:53:18;;;;;;;18.40;13.60;;;12.80;99.90;;;;;;5024928;28;20734;-60
2023/09/28 03:55:47;;;;;;;18.80;13.70;;;12.80;99.90;;;;;;5023591;28;20067;-59
2023/09/28 03:58:13;;;;;;;16.00;11.95;;;12.90;99.90;;;;;;5027234;28;20075;-59
2023/09/28 04:00:39;;;;;;;16.83;13.25;;;13.00;99.90;;;;;;5030201;28;20033;-59
2023/09/28 04:03:04;;;;;;;16.27;13.40;;;13.00;99.90;;;;;;5007348;28;20037;-59
2023/09/28 04:05:31;;;;;;;19.20;13.65;;;12.90;99.90;;;;;;5026959;28;20225;-60
2023/09/28 04:07:56;;;;;;;16.05;12.55;;;13.00;99.90;;;;;;5031194;28;20021;-59
2023/09/28 04:10:22;;;;;;;20.27;12.55;;;13.00;99.90;;;;;;5028488;28;20095;-59
2023/09/28 04:12:47;;;;;;;14.65;11.88;;;13.00;99.90;;;;;;5026001;28;20098;-59
2023/09/28 04:15:13;;;;;;;15.60;12.77;;;12.90;99.90;;;;;;5028417;28;20097;-60
2023/09/28 04:17:38;;;;;;;16.08;12.10;;;12.90;99.90;;;;;;5006088;28;20033;-59
2023/09/28 04:20:04;;;;;;;12.48;9.75;;;12.90;99.90;;;;;;5025581;28;20041;-58
2023/09/28 04:22:30;;;;;;;11.90;9.88;;;12.90;99.90;;;;;;5022588;28;20543;-58
2023/09/28 04:24:55;;;;;;;15.57;11.15;;;12.80;99.90;;;;;;5030624;28;20090;-58
2023/09/28 04:27:21;;;;;;;12.60;10.25;;;12.70;99.90;;;;;;5028833;28;20079;-60
2023/09/28 04:29:50;;;;;;;15.63;11.27;;;12.60;99.90;;;;;;5031257;28;20546;-60
2023/09/28 04:32:16;;;;;;;12.73;10.02;;;12.60;99.90;;;;;;5032913;28;20021;-59
2023/09/28 04:34:41;;;;;;;15.77;12.23;;;12.50;99.90;;;;;;5027057;28;20099;-59
2023/09/28 04:37:07;;;;;;;12.98;10.95;;;12.50;99.90;;;;;;5030539;28;20481;-59
2023/09/28 04:39:34;;;;;;;14.38;12.10;;;12.50;99.90;;;;;;5028394;28;20037;-59
2023/09/28 04:41:59;;;;;;;18.00;11.50;;;12.50;99.90;;;;;;5029447;28;20021;-59
2023/09/28 04:44:25;;;;;;;17.52;13.85;;;12.50;99.90;;;;;;5021996;28;20037;-59
2023/09/28 04:46:50;;;;;;;17.38;13.18;;;12.60;99.90;;;;;;5026088;28;20568;-59
2023/09/28 04:49:17;;;;;;;15.52;11.52;;;12.60;99.90;;;;;;5026239;28;20033;-60
2023/09/28 04:51:42;;;;;;;15.98;12.32;;;12.60;99.90;;;;;;5030662;28;20036;-59
2023/09/28 04:54:08;;;;;;;15.07;11.32;;;12.60;99.90;;;;;;5028012;28;20113;-58
2023/09/28 04:56:34;;;;;;;15.82;11.65;;;12.60;99.90;;;;;;5030626;28;20024;-54
2023/09/28 04:58:59;;;;;;;13.98;11.82;;;12.60;99.90;;;;;;5025885;28;20064;-50
2023/09/28 05:01:25;;;;;;;18.42;11.18;;;12.50;99.90;;;;;;5029120;28;20045;-52
2023/09/28 05:03:53;;;;;;;15.40;10.98;;;12.60;99.90;;;;;;5022647;28;20040;-52
2023/09/28 05:06:18;;;;;;;14.25;10.93;;;12.60;99.90;;;;;;5026607;28;20108;-53
2023/09/28 05:08:44;;;;;;;12.45;9.32;;;12.60;99.90;;;;;;5028745;28;20013;-49
2023/09/28 05:11:09;;;;;;;20.02;10.95;;;12.60;99.90;;;;;;5030694;28;20477;-51
2023/09/28 05:13:35;;;;;;;17.63;11.68;;;12.60;99.90;;;;;;5024804;28;20017;-52
2023/09/28 05:16:01;;;;;;;17.27;11.13;;;12.60;99.90;;;;;;5006655;28;20026;-52
2023/09/28 05:18:26;;;;;;;15.20;11.07;;;12.60;99.90;;;;;;5028652;28;20412;-55
2023/09/28 05:20:52;;;;;;;16.52;11.73;;;12.60;99.90;;;;;;5026846;28;20451;-50
2023/09/28 05:23:18;;;;;;;20.25;12.77;;;12.60;99.90;;;;;;5022690;28;20025;-55
2023/09/28 05:25:44;;;;;;;16.73;12.55;;;12.70;99.90;;;;;;5028043;28;20052;-54
2023/09/28 05:28:10;;;;;;;18.27;11.88;;;12.80;99.90;;;;;;5029202;28;20025;-53
2023/09/28 05:30:36;;;;;;;15.43;11.27;;;12.90;99.90;;;;;;5026253;28;20070;-54
2023/09/28 05:33:02;;;;;;;15.02;11.45;;;12.90;99.90;;;;;;5028040;28;20117;-52
2023/09/28 05:35:27;;;;;;;12.35;9.55;;;13.00;99.90;;;;;;5030164;28;20026;-54
2023/09/28 05:37:53;;;;;;;12.20;10.15;;;13.00;99.90;;;;;;5007917;28;20052;-52
2023/09/28 05:40:18;;;;;;;11.48;9.50;;;13.00;99.90;;;;;;5027831;28;20040;-53
2023/09/28 05:42:43;;;;;;;10.43;9.25;;;13.10;99.90;;;;;;5024375;28;20029;-53
2023/09/28 05:45:10;;;;;;;13.88;9.13;;;13.10;99.90;;;;;;5027414;28;20029;-52
2023/09/28 05:47:35;;;;;;;14.90;8.48;;;13.50;99.90;;;;;;5026739;28;20063;-52
2023/09/28 05:50:04;;;;;;;14.13;9.40;;;13.80;99.90;;;;;;5025814;28;20104;-52
2023/09/28 05:52:30;;;;;;;8.32;7.07;;;14.20;99.90;;;;;;5025335;28;20036;-52
2023/09/28 05:54:56;;;;;;;9.63;6.43;;;14.80;99.90;;;;;;5009856;28;20029;-50
2023/09/28 05:57:22;;;;;;;9.88;8.05;;;15.30;99.90;;;;;;5024227;28;20101;-49
2023/09/28 05:59:48;;;;;;;11.98;8.27;;;15.80;99.90;;;;;;5026674;28;20029;-53
2023/09/28 06:02:14;;;;;;;12.93;9.50;;;16.20;99.90;;;;;;5027440;28;20163;-51
2023/09/28 06:04:43;;;;;;;10.80;8.65;;;16.50;99.90;;;;;;5025299;28;20036;-50
2023/09/28 06:07:10;;;;;;;8.40;7.40;;;16.90;99.90;;;;;;5027096;28;20038;-54
2023/09/28 06:09:37;;;;;;;9.18;7.03;;;17.50;99.90;;;;;;5024862;28;20026;-50
2023/09/28 06:12:02;;;;;;;11.70;8.38;;;18.00;99.90;;;;;;5028654;28;20111;-53
2023/09/28 06:14:28;;;;;;;11.68;8.07;;;18.40;99.90;;;;;;5024055;28;20122;-52
2023/09/28 06:16:53;;;;;;;8.07;6.90;;;18.60;99.90;;;;;;5026104;28;20033;-49
2023/09/28 06:19:19;;;;;;;10.15;7.40;;;19.00;99.90;;;;;;5027858;28;20033;-51
2023/09/28 06:21:45;;;;;;;9.40;7.22;;;19.50;99.90;;;;;;5020816;28;20521;-53
2023/09/28 06:24:11;;;;;;;7.75;6.95;;;19.80;99.70;;;;;;5025912;28;20109;-51
2023/09/28 06:26:37;;;;;;;10.50;7.05;;;20.20;96.00;;;;;;5024871;28;20045;-47
2023/09/28 06:29:03;;;;;;;8.00;6.40;;;20.80;97.00;;;;;;5028880;28;20049;-53
2023/09/28 06:31:28;;;;;;;6.93;5.88;;;21.10;93.50;;;;;;5027064;28;20116;-52
2023/09/28 06:33:54;;;;;;;7.07;5.60;;;21.60;94.00;;;;;;5024037;28;20035;-53
2023/09/28 06:36:20;;;;;;;7.93;6.22;;;22.00;94.00;;;;;;5010856;28;20711;-52
2023/09/28 06:38:47;;;;;;;6.95;5.35;;;22.50;93.80;;;;;;5023384;28;20524;-51
2023/09/28 06:41:13;;;;;;;6.95;5.38;;;23.00;91.90;;;;;;5023165;28;20558;-54
2023/09/28 06:43:40;;;;;;;7.22;5.25;;;23.50;91.30;;;;;;5010074;28;20049;-52
2023/09/28 06:46:06;;;;;;;7.30;4.72;;;23.80;90.70;;;;;;5025798;28;20031;-53
2023/09/28 06:48:33;;;;;;;8.63;5.55;;;23.90;90.10;;;;;;5016894;28;20040;-53
2023/09/28 06:50:58;;;;;;;7.07;5.93;;;24.00;88.30;;;;;;5028017;28;20031;-53
2023/09/28 06:53:25;;;;;;;9.35;6.15;;;24.10;88.50;;;;;;5026766;28;20100;-52
2023/09/28 06:55:52;;;;;;;8.73;6.00;;;24.00;86.30;;;;;;5023447;28;20083;-53
2023/09/28 06:58:18;;;;;;;7.53;6.13;;;23.80;83.70;;;;;;5026545;28;20061;-55
2023/09/28 07:00:46;;;;;;;8.65;5.32;;;23.70;81.70;;;;;;5019083;28;20056;-53
2023/09/28 07:03:13;;;;;;;8.35;5.68;;;23.90;81.60;;;;;;5026503;28;20028;-52
2023/09/28 07:05:42;;;;;;;7.63;5.60;;;24.20;82.80;;;;;;5022784;28;20017;-53
2023/09/28 07:08:08;;;;;;;5.45;4.85;;;24.50;80.40;;;;;;5025814;28;20029;-52
2023/09/28 07:10:35;;;;;;;7.93;5.55;;;24.80;80.80;;;;;;5028576;28;20082;-54
2023/09/28 07:13:03;;;;;;;9.18;6.18;;;25.00;77.20;;;;;;5023696;28;20036;-55
2023/09/28 07:15:28;;;;;;;9.82;5.82;;;24.80;71.30;;;;;;5026940;28;20393;-53
2023/09/28 07:17:55;;;;;;;11.30;5.70;;;24.90;71.80;;;;;;5025064;28;20048;-53
2023/09/28 07:20:20;;;;;;;6.80;5.45;;;25.00;70.70;;;;;;5027726;28;20063;-54
2023/09/28 07:22:46;;;;;;;6.93;5.78;;;25.00;69.50;;;;;;5025008;28;20029;-51
2023/09/28 07:25:12;;;;;;;5.93;5.05;;;25.00;69.80;;;;;;5025225;28;20432;-54
2023/09/28 07:27:37;;;;;;;7.43;5.00;;;25.30;70.10;;;;;;5023963;28;20388;-51
2023/09/28 07:30:05;;;;;;;8.30;5.65;;;25.50;69.20;;;;;;5022250;28;20028;-55
2023/09/28 07:32:30;;;;;;;9.55;6.05;;;25.40;64.40;;;;;;5026340;28;20409;-55
2023/09/28 07:34:56;;;;;;;6.93;5.28;;;25.20;66.20;;;;;;5022399;28;20508;-51
2023/09/28 07:37:24;;;;;;;5.78;5.18;;;25.10;64.70;;;;;;5020448;28;20018;-55
2023/09/28 07:39:50;;;;;;;6.22;5.07;;;25.20;66.50;;;;;;5021462;28;20038;-53
2023/09/28 07:42:15;;;;;;;8.38;5.03;;;25.50;67.30;;;;;;5022794;28;20021;-53
2023/09/28 07:44:40;;;;;;;6.75;4.90;;;25.80;67.30;;;;;;5027524;28;20135;-54
2023/09/28 07:47:08;;;;;;;8.57;4.45;;;26.20;66.90;;;;;;5017829;28;21005;-55
2023/09/28 07:49:34;;;;;;;5.82;4.40;;;26.40;67.10;;;;;;5026563;28;20485;-56
2023/09/28 07:52:00;;;;;;;5.57;4.97;;;26.50;67.30;;;;;;5024996;28;20021;-52
2023/09/28 07:54:26;;;;;;;9.40;5.63;;;26.70;66.10;;;;;;5019425;28;20564;-55
2023/09/28 07:56:51;;;;;;;6.50;5.53;;;26.50;62.50;;;;;;5027441;28;20104;-54
2023/09/28 07:59:17;;;;;;;7.45;5.30;;;26.60;62.10;;;;;;5035508;28;20065;-51
2023/09/28 08:01:42;;;;;;;19.98;6.55;;;26.80;62.20;;;;;;5025070;28;20032;-54
2023/09/28 08:04:08;;;;;;;10.63;6.22;;;26.70;59.00;;;;;;5026842;28;20036;-55
2023/09/28 08:06:34;;;;;;;6.90;4.88;;;26.50;59.80;;;;;;5029943;28;20032;-52
2023/09/28 08:09:00;;;;;;;6.05;4.60;;;26.30;60.20;;;;;;5027445;28;20037;-52
2023/09/28 08:11:26;;;;;;;6.78;4.97;;;26.50;61.60;;;;;;5024241;28;20400;-55
2023/09/28 08:13:51;;;;;;;8.98;5.00;;;26.60;61.60;;;;;;5026100;28;20030;-53
2023/09/28 08:16:17;;;;;;;8.00;5.50;;;26.60;60.30;;;;;;5032269;28;20025;-53
2023/09/28 08:18:42;;;;;;;8.05;4.90;;;26.70;58.80;;;;;;5027936;28;20041;-52
2023/09/28 08:21:09;;;;;;;6.10;4.22;;;26.90;60.20;;;;;;5031450;28;20156;-61
2023/09/28 08:23:37;;;;;;;6.32;4.95;;;27.10;60.70;;;;;;5030783;28;20020;-61
2023/09/28 08:26:03;;;;;;;6.90;5.00;;;27.20;58.90;;;;;;5026579;28;20049;-61
2023/09/28 08:28:29;;;;;;;8.50;5.63;;;27.20;56.30;;;;;;5024282;28;20025;-61
2023/09/28 08:30:56;;;;;;;6.85;4.85;;;27.30;57.40;;;;;;5029660;28;20033;-61
2023/09/28 08:33:21;;;;;;;9.05;5.72;;;27.10;54.50;;;;;;5030372;28;20036;-62
2023/09/28 08:35:48;;;;;;;8.60;5.25;;;27.10;57.40;;;;;;5026209;28;20033;-61
2023/09/28 08:38:15;;;;;;;7.80;5.03;;;27.30;56.50;;;;;;5029465;28;20588;-61
2023/09/28 08:40:41;;;;;;;5.85;4.75;;;27.10;56.30;;;;;;5022355;28;20063;-61
2023/09/28 08:43:10;;;;;;;7.22;4.78;;;27.10;56.60;;;;;;5027638;28;20279;-61
2023/09/28 08:45:38;;;;;;;5.82;4.15;;;27.30;57.00;;;;;;5035807;28;20020;-61
2023/09/28 08:48:06;;;;;;;9.85;5.32;;;27.50;56.50;;;;;;5025945;28;20415;-62
2023/09/28 08:50:35;;;;;;;5.30;4.18;;;27.40;55.00;;;;;;5028105;28;20021;-62
2023/09/28 08:53:01;;;;;;;7.10;4.80;;;27.20;57.30;;;;;;5029177;28;20043;-61
2023/09/28 08:55:28;;;;;;;9.57;5.22;;;27.50;57.10;;;;;;5026967;28;20017;-62
2023/09/28 08:57:54;;;;;;;5.47;4.22;;;27.50;56.00;;;;;;5027924;28;20054;-60
2023/09/28 09:00:23;;;;;;;8.18;5.10;;;27.60;54.70;;;;;;5028569;28;20043;-60
2023/09/28 09:02:53;;;;;;;4.75;4.25;;;27.60;55.30;;;;;;5025643;28;20571;-60
2023/09/28 09:05:19;;;;;;;10.32;4.45;;;27.70;55.30;;;;;;5032551;28;20123;-61
2023/09/28 09:07:45;;;;;;;5.82;4.35;;;27.80;54.60;;;;;;5024845;28;20033;-58
2023/09/28 09:10:12;;;;;;;10.30;4.68;;;27.90;54.70;;;;;;5023481;28;20048;-57
2023/09/28 09:12:39;;;;;;;8.93;4.10;;;28.10;54.20;;;;;;5028364;28;20060;-57
2023/09/28 09:15:05;;;;;;;8.00;4.55;;;28.20;54.10;;;;;;5025160;28;20069;-57
2023/09/28 09:17:34;;;;;;;7.03;4.28;;;28.20;53.70;;;;;;5027951;28;20421;-57
2023/09/28 09:20:00;;;;;;;5.30;4.20;;;28.10;53.70;;;;;;5028242;28;20090;-57
2023/09/28 09:22:28;;;;;;;8.73;4.63;;;28.30;53.80;;;;;;5029372;28;20029;-58
2023/09/28 09:24:54;;;;;;;8.00;5.00;;;28.30;52.40;;;;;;5028288;28;20029;-57
2023/09/28 09:27:30;;;;;;;6.05;4.80;;;27.80;53.40;;;;;;5024448;28;20064;-58
2023/09/28 09:30:07;;;;;;;6.45;4.93;;;27.90;51.80;;;;;;5003681;28;20119;-57
2023/09/28 09:32:34;;;;;;;6.03;4.15;;;28.00;52.70;;;;;;5022070;28;20033;-58
2023/09/28 09:35:00;;;;;;;9.10;4.57;;;28.00;53.00;;;;;;5024353;28;20034;-57
2023/09/28 09:37:26;;;;;;;5.55;5.00;;;28.00;52.50;;;;;;5026201;28;20087;-58
2023/09/28 09:39:51;;;;;;;7.25;4.25;;;27.90;52.20;;;;;;5023910;28;20116;-57
2023/09/28 09:42:27;;;;;;;5.50;4.65;;;27.90;52.20;;;;;;5028121;28;20021;-58
2023/09/28 09:44:53;;;;;;;8.13;5.05;;;28.10;51.80;;;;;;5027330;28;20032;-58
2023/09/28 09:47:19;;;;;;;6.47;4.47;;;28.20;52.10;;;;;;5019971;28;20042;-60
2023/09/28 09:49:47;;;;;;;6.82;4.13;;;28.30;52.10;;;;;;5026101;28;20444;-60
2023/09/28 09:52:13;;;;;;;5.53;3.72;;;28.40;51.90;;;;;;5019821;28;20082;-61
2023/09/28 09:54:39;;;;;;;7.25;4.00;;;28.40;51.80;;;;;;5024575;28;20040;-59
2023/09/28 09:57:06;;;;;;;5.18;4.10;;;28.50;51.80;;;;;;5009455;28;20594;-60
2023/09/28 09:59:34;;;;;;;5.03;4.53;;;28.50;51.60;;;;;;5036526;28;20029;-60
2023/09/28 10:02:03;;;;;;;5.85;3.90;;;28.40;51.50;;;;;;5021431;28;20485;-60
2023/09/28 10:04:29;;;;;;;7.13;5.20;;;28.30;51.50;;;;;;5028044;28;20108;-60
2023/09/28 10:06:57;;;;;;;5.95;4.97;;;28.20;51.20;;;;;;5027981;28;20029;-60
2023/09/28 10:09:23;;;;;;;7.20;4.70;;;28.00;51.50;;;;;;5028961;28;20037;-59
2023/09/28 10:11:52;;;;;;;5.43;4.63;;;27.90;51.90;;;;;;5024550;28;20033;-60
2023/09/28 10:14:19;;;;;;;6.88;4.00;;;27.80;51.90;;;;;;5026242;28;20030;-60
2023/09/28 10:16:48;;;;;;;6.00;4.30;;;27.70;52.10;;;;;;5027797;28;20082;-59
2023/09/28 10:19:19;;;;;;;4.72;4.22;;;27.60;52.10;;;;;;5027728;28;20104;-60
2023/09/28 10:21:45;;;;;;;6.35;4.35;;;27.50;52.10;;;;;;5025831;28;20021;-59
2023/09/28 10:24:12;;;;;;;8.52;5.22;;;27.20;51.90;;;;;;5030134;28;20059;-60
2023/09/28 10:26:49;;;;;;;9.23;4.72;;;27.20;52.00;;;;;;5027220;28;20033;-60
2023/09/28 10:29:20;;;;;;;6.35;4.22;;;27.00;52.70;;;;;;5021281;28;20079;-60
2023/09/28 10:31:46;;;;;;;6.53;4.90;;;26.90;52.90;;;;;;5018993;28;20114;-60
2023/09/28 10:34:20;;;;;;;5.82;4.80;;;26.80;52.90;;;;;;5028699;28;20596;-60
2023/09/28 10:37:05;;;;;;;7.07;5.10;;;26.70;53.30;;;;;;5034248;28;20021;-59
2023/09/28 10:39:31;;;;;;;6.55;4.78;;;26.60;54.40;;;;;;5025080;28;20033;-60
2023/09/28 10:42:04;;;;;;;10.23;5.65;;;26.50;53.00;;;;;;5026026;28;20037;-59
2023/09/28 10:44:31;;;;;;;7.38;5.22;;;26.40;53.90;;;;;;5026400;28;20094;-60
2023/09/28 10:46:57;;;;;;;7.85;5.80;;;26.30;54.80;;;;;;5022284;28;20644;-59
2023/09/28 10:49:23;;;;;;;6.60;5.60;;;26.10;55.70;;;;;;5026973;28;20111;-59
2023/09/28 10:51:49;;;;;;;5.95;4.75;;;26.10;55.80;;;;;;5020610;28;20034;-60
2023/09/28 10:54:15;;;;;;;6.47;5.25;;;26.10;55.60;;;;;;5028347;28;20030;-60
2023/09/28 10:56:41;;;;;;;10.68;5.68;;;26.20;55.70;;;;;;5025350;28;20021;-59
2023/09/28 10:59:07;;;;;;;6.63;5.18;;;26.20;56.90;;;;;;5023834;28;20806;-60
2023/09/28 11:01:38;;;;;;;6.07;5.47;;;26.20;55.90;;;;;;5027150;28;20558;-60
2023/09/28 11:04:04;;;;;;;8.13;5.63;;;26.10;56.10;;;;;;5028395;28;20032;-59
2023/09/28 11:06:30;;;;;;;7.05;4.88;;;26.10;56.40;;;;;;5024169;28;20046;-60
2023/09/28 11:08:57;;;;;;;8.05;5.30;;;26.10;56.10;;;;;;5025452;28;20513;-59
2023/09/28 11:11:23;;;;;;;6.57;5.18;;;26.10;56.30;;;;;;5023983;28;20100;-59
2023/09/28 11:13:48;;;;;;;6.35;4.45;;;26.00;56.00;;;;;;5021918;28;20159;-60
2023/09/28 11:16:16;;;;;;;8.07;5.68;;;26.00;56.20;;;;;;5026581;28;20033;-60
2023/09/28 11:18:42;;;;;;;7.57;5.13;;;26.00;56.00;;;;;;5028509;28;20030;-59
2023/09/28 11:21:09;;;;;;;10.30;5.93;;;26.00;56.50;;;;;;5027964;28;20102;-59
2023/09/28 11:23:34;;;;;;;7.68;5.47;;;26.00;57.40;;;;;;5026382;28;20521;-59
2023/09/28 11:26:00;;;;;;;4.95;4.55;;;26.00;56.70;;;;;;5022821;28;20130;-60
2023/09/28 11:28:27;;;;;;;9.07;5.82;;;26.10;56.40;;;;;;5026014;28;20486;-60
2023/09/28 11:31:07;;;;;;;7.32;5.70;;;26.10;56.00;;;;;;5028878;28;20104;-59
2023/09/28 11:33:34;;;;;;;6.10;5.00;;;26.00;56.90;;;;;;5019782;28;20030;-60
2023/09/28 11:36:01;;;;;;;17.02;6.00;;;26.00;56.20;;;;;;5020309;28;20112;-59
2023/09/28 11:38:26;;;;;;;7.43;5.80;;;26.00;56.50;;;;;;5027360;28;20025;-59
2023/09/28 11:40:55;;;;;;;7.60;5.72;;;26.00;56.80;;;;;;5024742;28;20165;-59
2023/09/28 11:43:21;;;;;;;6.95;5.38;;;26.00;57.00;;;;;;5035035;28;20040;-60
2023/09/28 11:45:49;;;;;;;10.52;5.90;;;26.00;57.10;;;;;;5029636;28;20520;-60
2023/09/28 11:48:21;;;;;;;5.68;5.03;;;26.00;57.40;;;;;;5002571;28;20510;-59
2023/09/28 11:50:47;;;;;;;10.57;6.20;;;26.00;57.50;;;;;;5022770;28;20037;-59
2023/09/28 11:53:14;;;;;;;5.90;5.40;;;25.90;57.30;;;;;;5025538;28;20033;-60
2023/09/28 11:55:41;;;;;;;6.57;5.80;;;25.90;57.70;;;;;;5025329;28;20029;-59
2023/09/28 11:58:08;;;;;;;6.05;5.45;;;25.80;57.80;;;;;;5025292;28;20025;-59
2023/09/28 12:00:35;;;;;;;7.60;5.20;;;25.90;57.80;;;;;;5026801;28;20393;-59
2023/09/28 12:03:02;;;;;;;7.38;6.07;;;25.90;57.70;;;;;;5022771;28;20021;-58
2023/09/28 12:05:28;;;;;;;7.93;6.20;;;25.80;57.60;;;;;;5028196;28;20064;-60
2023/09/28 12:07:54;;;;;;;12.25;7.38;;;25.90;57.80;;;;;;5026115;28;20061;-59
2023/09/28 12:10:20;;;;;;;9.43;7.03;;;25.80;58.00;;;;;;5023474;28;20451;-60
2023/09/28 12:12:46;;;;;;;9.75;6.18;;;25.70;58.70;;;;;;5026671;28;20116;-59
2023/09/28 12:15:12;;;;;;;7.90;5.63;;;25.70;58.50;;;;;;5026813;28;20112;-60
2023/09/28 12:17:41;;;;;;;7.13;6.35;;;25.70;58.30;;;;;;5022439;28;20089;-59
2023/09/28 12:20:08;;;;;;;10.23;6.43;;;25.80;58.40;;;;;;5025378;28;20029;-59
2023/09/28 12:22:34;;;;;;;7.63;6.82;;;25.80;58.50;;;;;;5035216;28;20036;-60
2023/09/28 12:25:01;;;;;;;11.70;7.75;;;25.80;58.30;;;;;;5027267;28;20039;-59
2023/09/28 12:27:27;;;;;;;11.25;7.45;;;25.80;58.10;;;;;;5031022;28;20428;-60
2023/09/28 12:29:52;;;;;;;10.88;7.00;;;25.60;57.70;;;;;;5028954;28;20039;-59
2023/09/28 12:32:18;;;;;;;7.68;6.30;;;25.50;58.30;;;;;;5033873;28;20369;-59
2023/09/28 12:34:44;;;;;;;8.50;6.43;;;25.50;58.60;;;;;;5034091;28;20013;-60
2023/09/28 12:37:10;;;;;;;8.25;6.00;;;25.50;59.00;;;;;;5030957;28;20111;-60
2023/09/28 12:39:35;;;;;;;9.90;6.65;;;25.70;58.90;;;;;;5035879;28;20028;-60
2023/09/28 12:42:01;;;;;;;11.57;7.05;;;25.80;58.50;;;;;;5029403;28;20024;-60